Ana Sayfa
METAR-TAF:

METAR-TAF

Havaalanları :

Naval Auxiliary Landing Field Fentress

Chesapeake, Virginia, Amerika Birleşik Devletleri

Enlem: 36-42-03N, Boylam: 076-07-42W, yükseklik: 3 m

Güncel hava durumu gözlemi

Rapor saat 10:24 UTC de 8 dakika önce yapıldı.
Rüzgar kuzeydan 10 kt ve 18 kt'a kadar ani rüzgarlar
Sıcaklık 7°C
Nem 81%
Basınç 1023 hPa
Görüş mesafesi: 4.0 km
800 ft yükseklikte az bulutlu
1500 ft yükseklikte çok bulutlu
yağmur

METAR: KNFE 111024Z AUTO 36010G18KT 2 1/2SM RA FEW008 OVC015 07/04 A3022 RMK AO2 P0002 T00720044

Saat: 05:32 (10:32 UTC)


TAF: eksik

4.000'den fazla havaalanı için hava durumu gözlemleri ve tahminleri (METAR ve TAF raporları).

Kullanılabilir istasyonlar harita üzerinde sarı ve kırmızı noktalarla gösterilir.

İstasyonun adını görmek için fareyi noktanın üzerinde gezdirin.

Sonrasında hava gözlem ve tahminlerini görmek için tıklayın.

Haritayı değiştirmek için: yaklaştırmak için siyah artı işaretli yeşil düğmeye ve uzaklaştırmak için de eksi işaretli düğmeye hızla tıklayın; bitişik haritalar için yeşil okları kullanın.


METAR-TAF: